Burnet, TX

9:05 AM CST on December 03, 2016 (GMT -0600)
Bauer Farms | | Change Station

Elev 1476 ft 30.77 °N, 98.26 °W | Updated 8 minutes ago

Light Rain
Light Rain
46.2 °F
Feels Like 45 °F
N
3.7
Wind Variable Wind from NW

Today
High -- | Low -- °F
--% Chance of Precip.
Yesterday
High -- | Low -- °F
Precip. -- in
Pressure 30.04 in
Visibility 8.0 miles
Clouds Overcast 600 ft
Windchill 45 °F
Dew Point 46 °F
Humidity 99%
Rainfall 0.56 in
Snow Depth Not available.
7:14 AM 5:31 PM
Waxing Crescent, 15% visible
METAR KBMQ 031453Z AUTO 03007KT 8SM -RA OVC006 09/08 A3005 RMK AO2 SLP172 P0005 60013 T00890078 53013
Pressure 30.04 in
Visibility 8.0 miles
Clouds Overcast 600 ft
Windchill 45 °F
Dew Point 46 °F
Humidity 99%
Rainfall 0.56 in
Snow Depth Not available.
7:14 AM 5:31 PM
Waxing Crescent, 15% visible
METAR KBMQ 031453Z AUTO 03007KT 8SM -RA OVC006 09/08 A3005 RMK AO2 SLP172 P0005 60013 T00890078 53013

10-Day Weather Forecast

Almanac

Astronomy

Dec. 03, 2016 Rise Set
Actual Time
Civil Twilight
Nautical Twilight
Astronomical Twilight
Moon
Length of Visible Light
Length of Day
Tomorrow will be .
, % of the Moon is Illuminated

Today's Extremes

State Highs State Lows

Community

WunderPhotos

Upload Photos

1,955,456 photos uploaded!

WunderBlog® & News

Nearby

Air Quality

  Air Quality AQ Index Pollutant
Not available.

Snow Depth

Station Depth Elevation

Earthquake Activity

City Distance Mag. Time & Date
Minimum magnitude displayed is 2.5.

Coastal Water Temperatures

Place Temperature

Stations

Nearby Weather Stations

Station Location Temp. Windchill Dew Point Humidity Wind Precip. Elev Updated Type
                   

Watches & Warnings

There are currently no watches in effect.